createdAt,value
2023-01-28T00:02:45.640Z,100867.09
2023-01-28T00:07:51.374Z,100796.72
2023-01-28T00:12:55.196Z,100864.56
2023-01-28T00:17:58.939Z,100869.66
2023-01-28T00:23:02.997Z,100867.09
2023-01-28T00:28:06.715Z,100858.63
2023-01-28T00:33:11.583Z,100844.22
2023-01-28T00:38:18.693Z,100845.91
2023-01-28T00:43:22.936Z,100844.22
2023-01-28T00:48:26.629Z,100852.69
2023-01-28T00:53:32.018Z,100856.94
2023-01-28T00:58:36.023Z,100838.28
2023-01-28T01:03:40.420Z,100832.34
2023-01-28T01:08:50.948Z,100822.16
2023-01-28T01:13:59.632Z,100812.00
2023-01-28T01:19:03.796Z,100820.47
2023-01-28T01:24:07.958Z,100805.19
2023-01-28T01:29:11.945Z,100811.16
2023-01-28T01:34:17.795Z,100725.56
2023-01-28T01:39:21.514Z,100792.50
2023-01-28T01:45:02.412Z,100788.25
2023-01-28T01:50:41.050Z,100789.09
2023-01-28T01:55:48.611Z,100785.72
2023-01-28T02:00:52.893Z,100778.06
2023-01-28T02:05:56.895Z,100776.38
2023-01-28T02:11:06.386Z,100761.09
2023-01-28T02:16:11.387Z,100753.50
2023-01-28T02:21:38.580Z,100748.38
2023-01-28T02:27:01.293Z,100739.88
2023-01-28T02:32:11.747Z,100736.47
2023-01-28T02:37:23.077Z,100725.44
2023-01-28T02:42:32.928Z,100730.53
2023-01-28T02:47:55.309Z,100713.56
2023-01-28T02:53:42.664Z,100715.22
2023-01-28T02:58:59.478Z,100705.03
2023-01-28T03:04:21.363Z,100709.28
2023-01-28T03:09:28.731Z,100706.72
2023-01-28T03:14:53.408Z,100709.25
2023-01-28T03:20:16.251Z,100708.38
2023-01-28T03:25:42.216Z,100716.84
2023-01-28T03:31:16.739Z,100708.34
2023-01-28T03:36:46.378Z,100712.59
2023-01-28T03:42:09.721Z,100689.66
2023-01-28T03:47:24.505Z,100693.00
2023-01-28T03:52:33.968Z,100690.44
2023-01-28T03:58:15.096Z,100693.81
2023-01-28T04:03:21.807Z,100680.22
2023-01-28T04:08:36.788Z,100687.84
2023-01-28T04:14:03.474Z,100672.50
2023-01-28T04:19:29.121Z,100662.28
2023-01-28T04:24:34.831Z,100660.53
2023-01-28T04:29:38.620Z,100659.69
2023-01-28T04:35:10.062Z,100664.75
2023-01-28T04:40:32.774Z,100660.50
2023-01-28T04:45:50.805Z,100658.81
2023-01-28T04:51:06.812Z,100637.59
2023-01-28T04:56:25.878Z,100647.72
2023-01-28T05:01:30.545Z,100646.00
2023-01-28T05:06:35.166Z,100645.97
2023-01-28T05:11:52.492Z,100639.09
2023-01-28T05:16:56.504Z,100624.69
2023-01-28T05:22:00.466Z,100639.03
2023-01-28T05:27:09.270Z,100635.63
2023-01-28T05:32:14.114Z,100624.59
2023-01-28T05:37:18.553Z,100627.97
2023-01-28T05:42:23.608Z,100630.47
2023-01-28T05:47:34.915Z,100644.00
2023-01-28T05:53:01.440Z,100622.00
2023-01-28T05:58:09.778Z,100641.41
2023-01-28T06:03:14.171Z,100628.59
2023-01-28T06:08:19.477Z,100635.34
2023-01-28T06:13:24.239Z,100621.69
2023-01-28T06:18:49.392Z,100618.22
2023-01-28T06:23:53.750Z,100617.38
2023-01-28T06:28:57.707Z,100598.81
2023-01-28T06:34:01.704Z,100628.50
2023-01-28T06:39:05.896Z,100619.19
2023-01-28T06:44:09.679Z,100621.75
2023-01-28T06:49:13.564Z,100637.94
2023-01-28T06:54:17.490Z,100619.31
2023-01-28T06:59:22.196Z,100623.47
2023-01-28T07:04:26.082Z,100610.72
2023-01-28T07:09:29.843Z,100611.56
2023-01-28T07:14:33.896Z,100593.69
2023-01-28T07:19:37.918Z,100598.78
2023-01-28T07:24:41.986Z,100597.94
2023-01-28T07:29:45.933Z,100580.03
2023-01-28T07:34:49.809Z,100580.88
2023-01-28T07:39:54.048Z,100589.47
2023-01-28T07:44:58.169Z,100583.53
2023-01-28T07:50:02.017Z,100589.47
2023-01-28T07:55:08.158Z,100594.59
2023-01-28T08:00:12.998Z,100573.38
2023-01-28T08:05:22.536Z,100569.06
2023-01-28T08:10:27.116Z,100571.63
2023-01-28T08:15:33.384Z,100574.25
2023-01-28T08:20:38.951Z,100581.09
2023-01-28T08:25:44.141Z,100582.00
2023-01-28T08:30:48.408Z,100555.69
2023-01-28T08:35:52.487Z,100564.19
2023-01-28T08:40:58.992Z,100582.94
2023-01-28T08:46:02.828Z,100561.88
2023-01-28T08:51:07.033Z,100584.75
2023-01-28T08:56:10.790Z,100586.47
2023-01-28T09:01:14.792Z,100573.84
2023-01-28T09:06:18.554Z,100576.38
2023-01-28T09:11:22.617Z,100595.88
2023-01-28T09:16:27.662Z,100586.56
2023-01-28T09:21:31.429Z,100589.16
2023-01-28T09:26:35.503Z,100581.56
2023-01-28T09:31:39.274Z,100567.13
2023-01-28T09:36:45.440Z,100562.06
2023-01-28T09:42:24.043Z,100570.53
2023-01-28T09:47:37.030Z,100575.63
2023-01-28T09:52:42.634Z,100568.03
2023-01-28T09:57:54.414Z,100568.03
2023-01-28T10:03:25.155Z,100568.91
2023-01-28T10:08:35.283Z,100568.94
2023-01-28T10:14:13.479Z,100563.81
2023-01-28T10:19:29.264Z,100564.69
2023-01-28T10:24:42.461Z,100561.34
2023-01-28T10:29:50.862Z,100565.59
2023-01-28T10:34:54.832Z,100535.97
2023-01-28T10:40:00.832Z,100548.63
2023-01-28T10:45:24.922Z,100552.84
2023-01-28T10:50:31.381Z,100548.63
2023-01-28T10:55:56.747Z,100529.09
2023-01-28T11:01:03.039Z,100537.59
2023-01-28T11:06:07.347Z,100541.00
2023-01-28T11:11:16.698Z,100544.41
2023-01-28T11:16:21.471Z,100533.38
2023-01-28T11:21:32.570Z,100533.38
2023-01-28T11:26:40.168Z,100527.44
2023-01-28T11:31:45.758Z,100527.44
2023-01-28T11:37:04.916Z,100517.25
2023-01-28T11:42:23.203Z,100506.25
2023-01-28T11:47:28.337Z,100509.66
2023-01-28T11:53:07.923Z,100491.00
2023-01-28T11:58:27.128Z,100499.50
2023-01-28T12:04:06.003Z,100465.53
2023-01-28T12:09:27.912Z,100474.03
2023-01-28T12:20:33.158Z,100469.78
2023-01-28T12:26:04.986Z,100465.53
2023-01-28T12:31:28.760Z,100451.91
2023-01-28T12:37:05.257Z,100449.34
2023-01-28T12:42:16.097Z,100462.94
2023-01-28T12:47:42.447Z,100451.03
2023-01-28T12:52:54.260Z,100458.75
2023-01-28T12:58:01.519Z,100462.06
2023-01-28T13:03:24.089Z,100456.94
2023-01-28T13:08:30.124Z,100447.59
2023-01-28T13:13:39.256Z,100456.06
2023-01-28T13:18:46.138Z,100445.84
2023-01-28T13:23:52.277Z,100450.91
2023-01-28T13:29:26.393Z,100388.44
2023-01-28T13:34:37.992Z,100446.63
2023-01-28T13:39:54.369Z,100446.66
2023-01-28T13:45:20.860Z,100437.31
2023-01-28T13:50:34.293Z,100435.56
2023-01-28T13:55:45.128Z,100433.00
2023-01-28T14:01:08.268Z,100413.47
2023-01-28T14:06:36.388Z,100410.91
2023-01-28T14:12:04.861Z,100411.75
2023-01-28T14:17:17.721Z,100400.72
2023-01-28T14:22:22.209Z,100400.69
2023-01-28T14:27:45.721Z,100391.34
2023-01-28T14:32:53.054Z,100401.50
2023-01-28T14:37:58.494Z,100378.69
2023-01-28T14:43:10.090Z,100383.69
2023-01-28T14:48:16.455Z,100380.28
2023-01-28T14:53:20.908Z,100368.38
2023-01-28T14:58:33.704Z,100376.84
2023-01-28T15:03:46.941Z,100359.81
2023-01-28T15:08:52.817Z,100341.19
2023-01-28T15:14:00.514Z,100222.41
2023-01-28T15:19:08.570Z,100345.38
2023-01-28T15:24:17.170Z,100342.78
2023-01-28T15:29:41.495Z,100337.75
2023-01-28T15:34:48.687Z,100337.69
2023-01-28T15:40:07.236Z,100338.50
2023-01-28T15:45:19.653Z,100335.06
2023-01-28T15:50:26.829Z,100329.09
2023-01-28T15:55:41.209Z,100328.19
2023-01-28T16:00:45.686Z,100326.47
2023-01-28T16:06:09.531Z,100306.06
2023-01-28T16:11:14.957Z,100317.06
2023-01-28T16:16:35.163Z,100301.78
2023-01-28T16:21:46.743Z,100306.03
2023-01-28T16:27:02.163Z,100299.25
2023-01-28T16:32:31.066Z,100300.91
2023-01-28T16:37:35.038Z,100296.66
2023-01-28T16:42:38.930Z,100229.25
2023-01-28T16:47:42.667Z,100289.00
2023-01-28T16:52:49.825Z,100257.69
2023-01-28T16:57:58.634Z,100282.19
2023-01-28T17:03:02.327Z,100280.50
2023-01-28T17:08:06.445Z,100239.97
2023-01-28T17:13:10.329Z,100260.97
2023-01-28T17:18:14.384Z,100261.84
2023-01-28T17:23:23.709Z,100254.28
2023-01-28T17:28:27.448Z,100247.53
2023-01-28T17:33:31.337Z,100244.16
2023-01-28T17:38:35.439Z,100241.66
2023-01-28T17:43:39.395Z,100229.84
2023-01-28T17:48:46.316Z,100238.34
2023-01-28T17:53:55.262Z,100230.72
2023-01-28T17:59:04.380Z,100220.59
2023-01-28T18:04:08.121Z,100192.91
2023-01-28T18:09:13.152Z,100218.16
2023-01-28T18:14:16.933Z,100219.91
2023-01-28T18:19:21.009Z,100208.84
2023-01-28T18:24:27.750Z,100202.88
2023-01-28T18:29:32.653Z,100200.34
2023-01-28T18:34:36.719Z,100178.28
2023-01-28T18:39:42.313Z,100184.13
2023-01-28T18:44:48.976Z,100172.38
2023-01-28T18:49:52.729Z,100163.84
2023-01-28T18:54:57.673Z,100183.31
2023-01-28T19:00:01.611Z,100171.44
2023-01-28T19:05:07.154Z,100152.00
2023-01-28T19:10:13.275Z,100168.84
2023-01-28T19:15:17.385Z,100108.22
2023-01-28T19:20:21.700Z,100158.75
2023-01-28T19:25:25.483Z,100167.31
2023-01-28T19:30:29.392Z,100161.38
2023-01-28T19:35:36.542Z,100142.75
2023-01-28T19:40:42.039Z,100147.13
2023-01-28T19:45:45.771Z,100120.22
2023-01-28T19:50:49.656Z,100137.25
2023-01-28T19:55:53.433Z,100142.25
2023-01-28T20:01:08.698Z,100127.97
2023-01-28T20:06:15.823Z,100132.28
2023-01-28T20:11:20.037Z,100138.19
2023-01-28T20:16:26.800Z,100123.03
2023-01-28T20:21:33.384Z,100126.50
2023-01-28T20:26:39.145Z,100126.53
2023-01-28T20:31:43.945Z,100123.94
2023-01-28T20:36:48.072Z,100117.25
2023-01-28T20:41:52.222Z,100125.78
2023-01-28T20:46:55.962Z,100123.28
2023-01-28T20:51:59.866Z,100084.47
2023-01-28T20:57:03.648Z,100121.66
2023-01-28T21:02:07.778Z,100093.81
2023-01-28T21:07:13.641Z,100106.34
2023-01-28T21:12:17.359Z,100099.56
2023-01-28T21:17:21.358Z,100098.75
2023-01-28T21:22:25.266Z,100101.34
2023-01-28T21:27:29.083Z,100097.06
2023-01-28T21:32:32.912Z,100091.94
2023-01-28T21:37:39.529Z,100095.31
2023-01-28T21:42:44.140Z,100090.22
2023-01-28T21:47:48.074Z,100074.97
2023-01-28T21:52:52.701Z,100084.31
2023-01-28T21:58:17.225Z,100073.34
2023-01-28T22:03:21.113Z,100072.44
2023-01-28T22:08:24.867Z,100076.72
2023-01-28T22:13:28.928Z,100073.34
2023-01-28T22:18:33.187Z,100071.66
2023-01-28T22:23:37.316Z,100064.88
2023-01-28T22:28:41.135Z,100081.84
2023-01-28T22:33:45.036Z,100063.22
2023-01-28T22:38:49.051Z,100075.97
2023-01-28T22:43:53.608Z,100071.84
2023-01-28T22:48:59.921Z,100076.84
2023-01-28T22:54:04.182Z,100056.56
2023-01-28T22:59:08.095Z,100063.31
2023-01-28T23:04:12.323Z,100077.72
2023-01-28T23:09:16.030Z,100067.59
2023-01-28T23:14:39.085Z,100076.84
2023-01-28T23:20:01.055Z,100059.94
2023-01-28T23:25:06.332Z,100071.78
2023-01-28T23:30:12.780Z,100070.94
2023-01-28T23:35:17.356Z,100053.13
2023-01-28T23:40:24.927Z,100041.38
2023-01-28T23:45:29.137Z,100057.34
2023-01-28T23:50:32.881Z,100070.91
2023-01-28T23:55:39.439Z,100059.94
